Time;durP1;ratioP1;P1;durP2;ratioP2;P2;SDS_P1;SDS_P2;PMS_P1;PMS_P2;Temp;Humidity;BMP_temperature;BMP_pressure;BME280_temperature;BME280_humidity;BME280_pressure;Samples;Min_cycle;Max_cycle;Signal;HPM_P1;HPM_P2
2023/08/02 00:01:45;;;;;;;2.35;1.47;;;23.40;99.90;;;;;;1927876;73;21093;-80
2023/08/02 00:04:35;;;;;;;2.17;1.52;;;23.40;99.90;;;;;;1921299;73;21160;-79
2023/08/02 00:07:26;;;;;;;2.17;1.40;;;23.30;99.90;;;;;;1924791;73;21185;-79
2023/08/02 00:10:17;;;;;;;1.45;1.27;;;23.40;99.90;;;;;;1927113;73;21082;-79
2023/08/02 00:13:08;;;;;;;1.87;1.50;;;23.40;99.90;;;;;;1883552;75;21067;-79
2023/08/02 00:16:00;;;;;;;2.58;1.37;;;23.40;99.90;;;;;;1939459;73;21177;-79
2023/08/02 00:18:51;;;;;;;1.82;1.40;;;23.40;99.90;;;;;;1917409;75;21130;-79
2023/08/02 00:24:22;;;;;;;2.62;1.67;;;23.30;99.90;;;;;;1950628;72;22157;-79
2023/08/02 00:29:59;;;;;;;2.27;1.45;;;23.30;99.90;;;;;;1929654;72;22201;-79
2023/08/02 00:32:51;;;;;;;2.85;1.40;;;23.30;99.90;;;;;;1914621;74;21143;-79
2023/08/02 00:35:48;;;;;;;1.62;1.20;;;23.30;99.90;;;;;;1914915;73;21099;-79
2023/08/02 00:44:10;;;;;;;1.95;1.22;;;23.30;99.90;;;;;;1944573;72;22617;-79
2023/08/02 00:49:51;;;;;;;1.47;1.25;;;23.40;99.90;;;;;;1950936;72;22331;-80
2023/08/02 00:52:46;;;;;;;2.80;1.35;;;23.40;99.90;;;;;;1910901;73;21107;-80
2023/08/02 00:55:39;;;;;;;1.32;1.12;;;23.40;99.90;;;;;;1925839;73;21118;-80
2023/08/02 00:58:30;;;;;;;1.80;1.40;;;23.30;99.90;;;;;;1922207;74;21104;-79
2023/08/02 01:04:05;;;;;;;3.60;1.07;;;23.30;99.90;;;;;;1943490;72;22273;-79
2023/08/02 01:07:21;;;;;;;2.35;1.25;;;23.30;99.90;;;;;;1919948;73;21110;-79
2023/08/02 01:10:18;;;;;;;1.82;1.15;;;23.30;99.90;;;;;;1922744;73;21120;-79
2023/08/02 01:13:11;;;;;;;2.50;1.35;;;23.20;99.90;;;;;;1938242;73;21110;-79
2023/08/02 01:18:40;;;;;;;1.42;1.10;;;23.00;99.90;;;;;;1946117;72;22228;-79
2023/08/02 01:21:32;;;;;;;2.77;1.17;;;22.90;99.90;;;;;;1939217;73;21188;-79
2023/08/02 01:24:27;;;;;;;1.25;1.07;;;22.90;99.90;;;;;;1937359;73;21047;-79
2023/08/02 01:30:01;;;;;;;2.70;1.20;;;22.80;99.90;;;;;;1972616;72;22115;-79
2023/08/02 01:32:53;;;;;;;1.25;1.02;;;22.70;99.90;;;;;;1938514;73;21118;-79
2023/08/02 01:35:45;;;;;;;1.32;1.00;;;22.70;99.90;;;;;;1920925;73;21181;-79
2023/08/02 01:41:18;;;;;;;3.75;1.37;;;22.70;99.90;;;;;;1952750;72;22196;-79
2023/08/02 01:44:10;;;;;;;3.15;1.40;;;22.70;99.90;;;;;;1913951;73;21192;-79
2023/08/02 01:47:01;;;;;;;3.37;1.15;;;22.60;99.90;;;;;;1918140;73;21110;-79
2023/08/02 01:49:52;;;;;;;4.05;1.42;;;22.60;99.90;;;;;;1955615;73;21157;-79
2023/08/02 01:52:48;;;;;;;1.92;1.05;;;22.60;99.90;;;;;;1945580;73;21080;-79
2023/08/02 01:55:37;;;;;;;1.25;1.10;;;22.70;99.90;;;;;;1923971;73;21091;-80
2023/08/02 01:58:30;;;;;;;3.00;1.10;;;22.70;99.90;;;;;;1941542;73;21083;-80
2023/08/02 02:01:21;;;;;;;2.60;1.17;;;22.70;99.90;;;;;;1926863;73;21098;-79
2023/08/02 02:04:13;;;;;;;2.15;1.20;;;22.80;99.90;;;;;;1920120;74;21080;-79
2023/08/02 02:07:05;;;;;;;1.98;1.40;;;22.80;99.90;;;;;;1947026;73;21048;-79
2023/08/02 02:09:56;;;;;;;1.98;1.32;;;22.80;99.90;;;;;;1924591;73;21618;-79
2023/08/02 02:12:48;;;;;;;2.15;1.37;;;22.90;99.90;;;;;;1915373;74;21083;-79
2023/08/02 02:15:39;;;;;;;2.35;1.10;;;22.90;99.90;;;;;;1919700;74;21067;-80
2023/08/02 02:18:31;;;;;;;1.90;1.30;;;22.90;99.90;;;;;;1930092;73;21172;-79
2023/08/02 02:24:02;;;;;;;1.50;1.10;;;23.00;99.90;;;;;;1944115;72;22272;-78
2023/08/02 02:26:53;;;;;;;1.35;1.00;;;23.00;99.90;;;;;;1884761;75;21078;-79
2023/08/02 02:29:44;;;;;;;1.87;1.32;;;23.00;99.90;;;;;;1896633;75;21137;-79
2023/08/02 02:32:35;;;;;;;2.62;1.30;;;23.10;99.90;;;;;;1892649;75;21075;-79
2023/08/02 02:35:27;;;;;;;1.65;1.30;;;22.90;99.90;;;;;;1893635;75;21139;-78
2023/08/02 02:38:18;;;;;;;2.65;1.20;;;22.90;99.90;;;;;;1884497;75;21075;-78
2023/08/02 02:43:49;;;;;;;1.52;1.22;;;23.00;99.90;;;;;;1938394;72;22271;-78
2023/08/02 02:49:19;;;;;;;1.98;1.52;;;22.90;99.90;;;;;;1919347;72;22160;-79
2023/08/02 02:52:10;;;;;;;1.20;1.00;;;22.80;99.90;;;;;;1915019;75;21098;-79
2023/08/02 02:55:02;;;;;;;1.80;1.10;;;22.80;99.90;;;;;;1915957;75;21597;-79
2023/08/02 02:57:53;;;;;;;1.30;1.20;;;22.70;99.90;;;;;;1903679;75;21084;-79
2023/08/02 03:00:44;;;;;;;2.83;1.27;;;22.70;99.90;;;;;;1885586;75;21140;-79
2023/08/02 03:03:36;;;;;;;1.67;1.17;;;22.80;99.90;;;;;;1887057;75;21152;-79
2023/08/02 03:06:27;;;;;;;2.62;1.30;;;22.70;99.90;;;;;;1915647;75;21110;-79
2023/08/02 03:09:18;;;;;;;2.35;1.07;;;22.80;99.90;;;;;;1884371;75;21155;-79
2023/08/02 03:12:10;;;;;;;1.42;1.20;;;22.70;99.90;;;;;;1906105;75;21148;-78
2023/08/02 03:15:02;;;;;;;1.40;1.10;;;22.70;99.90;;;;;;1905897;75;21137;-78
2023/08/02 03:17:53;;;;;;;3.47;1.00;;;22.70;99.90;;;;;;1908955;75;21059;-78
2023/08/02 03:23:24;;;;;;;1.37;1.12;;;22.70;99.90;;;;;;1945947;72;22691;-79
2023/08/02 03:26:15;;;;;;;2.35;1.10;;;22.70;99.90;;;;;;1922785;73;21185;-79
2023/08/02 03:29:06;;;;;;;1.42;1.02;;;22.60;99.90;;;;;;1904044;75;21155;-78
2023/08/02 03:34:36;;;;;;;1.30;1.15;;;22.70;99.90;;;;;;1929545;72;22197;-79
2023/08/02 03:37:27;;;;;;;1.35;1.15;;;22.70;99.90;;;;;;1889709;75;21110;-78
2023/08/02 03:40:19;;;;;;;1.98;1.02;;;22.60;99.90;;;;;;1884170;75;21050;-78
2023/08/02 03:43:10;;;;;;;1.85;1.20;;;22.40;99.90;;;;;;1910546;75;21102;-79
2023/08/02 03:48:43;;;;;;;2.92;1.35;;;22.50;99.90;;;;;;1950809;72;22137;-78
2023/08/02 03:54:13;;;;;;;2.25;1.10;;;22.40;99.90;;;;;;1920162;72;22144;-79
2023/08/02 03:57:07;;;;;;;1.70;1.30;;;22.40;99.90;;;;;;1905933;75;21145;-79
2023/08/02 03:59:58;;;;;;;1.45;1.07;;;22.30;99.90;;;;;;1887551;75;21561;-78
2023/08/02 04:02:49;;;;;;;2.00;1.20;;;22.30;99.90;;;;;;1891220;75;21055;-78
2023/08/02 04:08:21;;;;;;;1.60;1.25;;;22.10;99.90;;;;;;1930808;72;22669;-79
2023/08/02 04:11:20;;;;;;;1.60;1.12;;;22.10;99.90;;;;;;1891247;75;21138;-80
2023/08/02 04:14:11;;;;;;;1.30;1.17;;;22.00;99.90;;;;;;1897632;75;21195;-80
2023/08/02 04:17:03;;;;;;;1.10;1.00;;;22.10;99.90;;;;;;1905675;75;21129;-79
2023/08/02 04:19:54;;;;;;;2.22;1.40;;;22.00;99.90;;;;;;1936293;73;21070;-79
2023/08/02 04:22:47;;;;;;;3.85;1.30;;;22.00;99.90;;;;;;1895072;75;21100;-79
2023/08/02 04:25:38;;;;;;;1.95;1.25;;;22.00;99.90;;;;;;1909160;75;21062;-80
2023/08/02 04:28:30;;;;;;;1.35;1.10;;;22.10;99.90;;;;;;1914052;73;21147;-80
2023/08/02 04:31:21;;;;;;;1.57;1.20;;;22.10;99.90;;;;;;1922302;73;21058;-90
2023/08/02 04:34:13;;;;;;;1.72;1.25;;;22.10;99.90;;;;;;1917705;75;21182;-91
2023/08/02 04:37:05;;;;;;;2.33;1.30;;;22.10;99.90;;;;;;1917931;75;21168;-91
2023/08/02 04:39:56;;;;;;;2.05;1.10;;;22.00;99.90;;;;;;1917392;75;21546;-91
2023/08/02 04:42:48;;;;;;;2.10;1.07;;;22.00;99.90;;;;;;1917473;75;21082;-91
2023/08/02 04:45:39;;;;;;;3.10;1.25;;;21.90;99.90;;;;;;1917560;75;21169;-90
2023/08/02 04:48:30;;;;;;;2.37;1.22;;;22.00;99.90;;;;;;1921920;74;21062;-91
2023/08/02 04:51:21;;;;;;;2.22;1.40;;;22.00;99.90;;;;;;1917609;75;21183;-91
2023/08/02 04:54:13;;;;;;;2.42;1.32;;;22.00;99.90;;;;;;1917515;75;21106;-89
2023/08/02 04:59:42;;;;;;;3.90;1.50;;;21.80;99.90;;;;;;1956633;72;22196;-86
2023/08/02 05:02:36;;;;;;;4.08;1.40;;;21.80;99.90;;;;;;1918672;73;21158;-86
2023/08/02 05:05:27;;;;;;;3.17;1.50;;;21.90;99.90;;;;;;1928157;73;21187;-86
2023/08/02 05:08:19;;;;;;;2.33;1.32;;;21.80;99.90;;;;;;1921509;73;21090;-86
2023/08/02 05:13:51;;;;;;;1.87;1.40;;;21.90;99.90;;;;;;1942976;72;22171;-86
2023/08/02 05:16:42;;;;;;;4.12;1.25;;;21.80;99.90;;;;;;1902730;75;21086;-85
2023/08/02 05:19:34;;;;;;;5.35;1.55;;;21.80;99.90;;;;;;1897296;75;21062;-85
2023/08/02 05:22:25;;;;;;;2.20;1.12;;;21.70;99.90;;;;;;1898499;75;21062;-85
2023/08/02 05:25:16;;;;;;;1.60;1.20;;;21.70;99.90;;;;;;1894897;75;21168;-85
2023/08/02 05:30:47;;;;;;;2.40;1.27;;;21.70;99.90;;;;;;1940509;72;22205;-85
2023/08/02 05:33:39;;;;;;;2.12;1.20;;;21.70;99.90;;;;;;1912115;74;21150;-85
2023/08/02 05:39:09;;;;;;;2.02;1.25;;;21.70;99.90;;;;;;1960640;72;22196;-85
2023/08/02 05:42:00;;;;;;;1.52;1.15;;;21.70;99.90;;;;;;1918189;73;21483;-85
2023/08/02 05:44:51;;;;;;;3.12;1.50;;;21.70;99.90;;;;;;1917753;73;21114;-85
2023/08/02 05:50:22;;;;;;;2.60;1.57;;;21.80;99.90;;;;;;1919462;72;22183;-86
2023/08/02 05:53:13;;;;;;;2.55;1.80;;;21.80;99.90;;;;;;1908528;74;21107;-86
2023/08/02 05:56:05;;;;;;;2.87;1.57;;;21.70;99.90;;;;;;1904100;75;21121;-85
2023/08/02 05:58:56;;;;;;;2.70;1.70;;;21.70;99.90;;;;;;1912081;74;21103;-85
2023/08/02 06:01:47;;;;;;;1.98;1.50;;;21.70;99.90;;;;;;1915560;73;21130;-86
2023/08/02 06:04:40;;;;;;;1.82;1.22;;;21.80;99.90;;;;;;1908768;73;21159;-86
2023/08/02 06:07:31;;;;;;;2.05;1.40;;;21.80;99.90;;;;;;1903852;74;21094;-86
2023/08/02 06:10:23;;;;;;;1.85;1.30;;;21.80;99.90;;;;;;1918701;74;21102;-85
2023/08/02 06:13:14;;;;;;;4.15;1.50;;;21.90;99.90;;;;;;1910281;74;21211;-86
2023/08/02 06:18:45;;;;;;;2.52;1.45;;;22.00;99.90;;;;;;1942434;72;22172;-85
2023/08/02 06:21:37;;;;;;;3.33;1.75;;;22.10;99.90;;;;;;1901843;75;21192;-86
2023/08/02 06:24:27;;;;;;;2.40;1.40;;;22.10;99.90;;;;;;1885996;75;21187;-86
2023/08/02 06:27:19;;;;;;;2.50;1.35;;;22.10;99.90;;;;;;1889577;75;21054;-86
2023/08/02 06:30:12;;;;;;;2.37;1.50;;;22.10;99.90;;;;;;1897030;75;21648;-86
2023/08/02 06:35:45;;;;;;;2.65;1.60;;;22.20;99.90;;;;;;1929007;72;22142;-80
2023/08/02 06:38:39;;;;;;;2.47;1.27;;;22.20;99.90;;;;;;1912110;75;21043;-90
2023/08/02 06:41:29;;;;;;;1.70;1.22;;;22.40;99.90;;;;;;1918336;75;21054;-91
2023/08/02 06:44:20;;;;;;;2.27;1.20;;;22.50;99.90;;;;;;1917208;75;21430;-91
2023/08/02 06:47:12;;;;;;;2.35;1.37;;;22.70;99.90;;;;;;1917093;75;21138;-92
2023/08/02 06:50:04;;;;;;;1.52;1.30;;;22.70;99.90;;;;;;1917635;75;21098;-92
2023/08/02 06:52:56;;;;;;;2.12;1.40;;;22.60;99.90;;;;;;1917630;75;21128;-92
2023/08/02 06:55:47;;;;;;;3.77;1.40;;;22.50;99.90;;;;;;1917147;75;21137;-91
2023/08/02 06:58:39;;;;;;;1.80;1.30;;;22.50;99.90;;;;;;1880480;76;21110;-91
2023/08/02 07:01:31;;;;;;;2.92;1.50;;;22.50;99.90;;;;;;1918600;75;21104;-91
2023/08/02 07:04:23;;;;;;;2.02;1.20;;;22.50;99.90;;;;;;1880469;76;21156;-87
2023/08/02 07:07:14;;;;;;;1.60;1.30;;;22.50;99.90;;;;;;1903536;75;21051;-89
2023/08/02 07:10:06;;;;;;;3.42;1.22;;;22.60;99.90;;;;;;1908208;75;21187;-89
2023/08/02 07:12:58;;;;;;;3.65;1.17;;;22.70;99.90;;;;;;1915972;75;21090;-88
2023/08/02 07:15:49;;;;;;;2.90;1.60;;;22.80;99.90;;;;;;1851772;76;21092;-88
2023/08/02 07:18:41;;;;;;;2.60;1.60;;;22.90;99.90;;;;;;1917013;75;21175;-89
2023/08/02 07:21:32;;;;;;;3.25;1.42;;;22.90;99.90;;;;;;1901709;75;21062;-88
2023/08/02 07:24:24;;;;;;;3.83;1.27;;;23.10;99.90;;;;;;1916316;74;21095;-88
2023/08/02 07:27:15;;;;;;;1.30;1.15;;;23.10;99.90;;;;;;1904409;75;21173;-88
2023/08/02 07:30:09;;;;;;;2.72;1.40;;;23.10;99.90;;;;;;1917300;75;21106;-89
2023/08/02 07:33:00;;;;;;;1.32;1.10;;;23.20;99.90;;;;;;1886343;75;21074;-89
2023/08/02 07:35:51;;;;;;;2.47;1.57;;;23.20;99.90;;;;;;1903912;75;21134;-88
2023/08/02 07:38:43;;;;;;;2.27;1.27;;;23.20;99.90;;;;;;1869065;76;21158;-89
2023/08/02 07:41:35;;;;;;;3.05;1.45;;;23.40;99.90;;;;;;1898295;75;21150;-89
2023/08/02 07:44:26;;;;;;;3.27;1.85;;;23.50;99.90;;;;;;1917162;75;21316;-89
2023/08/02 07:47:17;;;;;;;2.47;1.70;;;23.60;99.90;;;;;;1847201;77;21180;-89
2023/08/02 07:50:09;;;;;;;3.02;1.50;;;23.70;99.90;;;;;;1879254;76;21172;-90
2023/08/02 07:53:01;;;;;;;2.17;1.30;;;23.90;99.90;;;;;;1916667;75;21059;-91
2023/08/02 07:59:23;;;;;;;2.10;1.65;;;24.00;99.90;;;;;;1999116;71;22245;-89
2023/08/02 08:02:17;;;;;;;2.92;1.90;;;24.20;99.90;;;;;;1961422;72;21157;-89
2023/08/02 08:05:10;;;;;;;3.22;1.40;;;24.20;99.90;;;;;;2046094;69;21090;-89
2023/08/02 08:08:01;;;;;;;2.30;1.50;;;24.30;99.90;;;;;;2038508;69;21116;-89
2023/08/02 08:10:53;;;;;;;2.83;1.72;;;24.40;99.90;;;;;;2047190;69;21350;-90
2023/08/02 08:13:44;;;;;;;2.65;1.60;;;24.50;99.90;;;;;;2033405;70;21104;-90
2023/08/02 08:16:36;;;;;;;3.05;1.70;;;24.60;99.90;;;;;;2032624;70;21129;-89
2023/08/02 08:19:28;;;;;;;2.70;1.50;;;24.60;99.90;;;;;;2046190;69;21119;-89
2023/08/02 08:22:21;;;;;;;4.22;1.90;;;24.70;99.90;;;;;;2031733;70;21073;-89
2023/08/02 08:25:12;;;;;;;2.35;1.55;;;24.90;99.90;;;;;;2036758;69;21119;-90
2023/08/02 08:30:43;;;;;;;2.58;1.50;;;25.30;99.90;;;;;;1954173;72;22507;-89
2023/08/02 08:33:34;;;;;;;3.50;1.50;;;25.50;99.90;;;;;;1889730;75;21181;-89
2023/08/02 08:36:26;;;;;;;1.75;1.30;;;25.80;99.90;;;;;;1889553;75;21164;-89
2023/08/02 08:39:18;;;;;;;2.77;1.50;;;25.90;99.90;;;;;;1909940;75;21518;-90
2023/08/02 08:42:12;;;;;;;2.67;1.37;;;25.70;99.90;;;;;;1889745;75;21072;-90
2023/08/02 08:45:05;;;;;;;2.10;1.67;;;25.80;99.90;;;;;;1901891;75;21167;-90
2023/08/02 08:47:56;;;;;;;2.65;1.50;;;25.80;99.90;;;;;;1894421;75;21113;-90
2023/08/02 08:50:49;;;;;;;2.17;1.50;;;25.90;99.90;;;;;;1896442;75;21220;-90
2023/08/02 08:53:44;;;;;;;2.85;1.70;;;26.00;99.90;;;;;;1895579;75;21141;-90
2023/08/02 08:59:53;;;;;;;2.20;1.90;;;25.90;99.90;;;;;;1937689;74;22186;-90
2023/08/02 09:16:27;;;;;;;1.92;1.57;;;26.00;99.90;;;;;;1932300;72;22161;-90
2023/08/02 09:19:23;;;;;;;1.50;1.40;;;26.40;99.90;;;;;;1884351;76;21173;-90
2023/08/02 09:29:18;;;;;;;2.65;1.52;;;26.40;99.90;;;;;;1918709;74;22480;-90
2023/08/02 09:32:12;;;;;;;1.62;1.50;;;26.50;99.90;;;;;;1881913;76;21155;-90
2023/08/02 09:35:04;;;;;;;2.30;1.60;;;26.50;99.90;;;;;;1899494;74;21590;-89
2023/08/02 09:37:55;;;;;;;2.42;1.50;;;26.50;99.90;;;;;;1874108;76;21561;-89
2023/08/02 09:40:47;;;;;;;2.10;1.42;;;26.40;99.90;;;;;;1883792;76;21149;-92
2023/08/02 09:43:44;;;;;;;1.47;1.37;;;26.40;99.90;;;;;;1924707;73;21074;-90
2023/08/02 09:46:37;;;;;;;4.85;1.72;;;26.40;99.90;;;;;;1909080;75;21151;-90
2023/08/02 09:52:28;;;;;;;2.50;1.55;;;26.60;99.90;;;;;;1954223;72;22153;-90
2023/08/02 09:55:20;;;;;;;3.62;1.50;;;26.80;99.90;;;;;;1905306;74;21086;-89
2023/08/02 09:58:13;;;;;;;5.50;1.77;;;26.70;99.90;;;;;;1918003;74;21130;-91
2023/08/02 10:01:06;;;;;;;2.80;1.85;;;26.80;99.90;;;;;;1927356;74;21164;-90
2023/08/02 10:03:59;;;;;;;1.80;1.50;;;26.90;99.90;;;;;;1905937;74;21059;-90
2023/08/02 10:06:53;;;;;;;2.33;1.77;;;26.90;99.90;;;;;;1906132;75;21189;-90
2023/08/02 10:09:46;;;;;;;3.25;1.90;;;27.10;99.90;;;;;;1905867;75;21106;-90
2023/08/02 10:12:37;;;;;;;4.25;1.62;;;27.20;99.90;;;;;;1905105;75;21164;-90
2023/08/02 10:15:29;;;;;;;1.80;1.57;;;27.30;99.90;;;;;;1924694;74;21165;-91
2023/08/02 10:21:01;;;;;;;1.70;1.60;;;27.50;99.90;;;;;;1958081;72;22558;-90
2023/08/02 10:23:53;;;;;;;2.20;1.90;;;27.50;99.90;;;;;;1910842;75;21094;-90
2023/08/02 10:26:46;;;;;;;1.82;1.70;;;27.60;99.90;;;;;;1905648;75;21204;-91
2023/08/02 10:29:40;;;;;;;2.47;2.05;;;27.70;99.90;;;;;;1906196;75;21076;-90
2023/08/02 10:32:31;;;;;;;1.85;1.60;;;27.80;99.90;;;;;;1885762;75;21063;-90
2023/08/02 10:35:53;;;;;;;2.22;1.62;;;27.80;99.90;;;;;;1898275;75;21236;-91
2023/08/02 10:38:53;;;;;;;5.65;1.80;;;27.90;99.90;;;;;;1884653;76;21127;-92
2023/08/02 10:41:57;;;;;;;2.12;1.87;;;28.10;99.90;;;;;;1901297;75;21099;-91
2023/08/02 10:45:14;;;;;;;2.75;1.70;;;28.10;99.90;;;;;;1884707;76;21119;-91
2023/08/02 10:48:25;;;;;;;3.08;1.90;;;28.30;99.90;;;;;;1900416;75;21353;-91
2023/08/02 10:51:33;;;;;;;2.60;1.98;;;28.40;99.90;;;;;;1884494;76;21209;-90
2023/08/02 10:54:25;;;;;;;2.87;1.70;;;28.50;99.90;;;;;;1884524;76;21110;-91
2023/08/02 10:57:17;;;;;;;2.85;1.90;;;28.60;99.90;;;;;;1893433;75;21105;-90
2023/08/02 11:00:20;;;;;;;2.00;1.80;;;28.70;99.90;;;;;;1917587;75;21106;-91
2023/08/02 11:03:11;;;;;;;2.83;1.90;;;28.80;99.90;;;;;;1916195;75;21082;-90
2023/08/02 11:06:02;;;;;;;2.47;1.90;;;28.90;99.90;;;;;;1884784;76;21098;-90
2023/08/02 11:08:54;;;;;;;3.08;2.00;;;29.00;99.90;;;;;;1897285;75;21094;-90
2023/08/02 11:11:45;;;;;;;2.83;1.87;;;29.20;99.90;;;;;;1895280;75;21055;-90
2023/08/02 11:14:37;;;;;;;2.47;2.00;;;29.20;99.90;;;;;;1915977;75;21156;-89
2023/08/02 11:17:28;;;;;;;2.85;1.95;;;29.30;99.90;;;;;;1903730;75;21373;-90
2023/08/02 11:20:24;;;;;;;1.92;1.77;;;29.30;99.90;;;;;;1884552;76;21120;-89
2023/08/02 11:23:26;;;;;;;2.62;1.60;;;29.50;99.90;;;;;;1894590;75;21063;-90
2023/08/02 11:26:19;;;;;;;2.12;1.90;;;29.60;99.90;;;;;;1894582;75;21106;-89
2023/08/02 11:29:11;;;;;;;3.05;1.82;;;29.70;99.90;;;;;;1872855;76;21091;-90
2023/08/02 11:32:06;;;;;;;6.50;2.30;;;29.70;99.90;;;;;;1890833;75;21173;-90
2023/08/02 11:34:58;;;;;;;2.10;1.90;;;29.80;99.90;;;;;;1902309;75;21931;-90
2023/08/02 11:37:51;;;;;;;2.37;1.98;;;29.90;99.90;;;;;;1872238;77;21510;-89
2023/08/02 11:40:42;;;;;;;3.55;2.20;;;29.90;99.90;;;;;;1896673;75;21139;-91
2023/08/02 11:43:37;;;;;;;3.05;1.80;;;29.80;99.90;;;;;;1895636;75;21558;-91
2023/08/02 11:46:28;;;;;;;3.58;2.00;;;29.90;99.90;;;;;;1916384;75;21098;-92
2023/08/02 11:49:19;;;;;;;4.70;2.42;;;29.90;99.90;;;;;;1861513;75;21101;-89
2023/08/02 11:52:11;;;;;;;5.97;2.08;;;29.80;99.90;;;;;;1871660;77;21062;-90
2023/08/02 11:55:02;;;;;;;3.87;2.05;;;29.90;99.90;;;;;;1871911;77;21116;-91
2023/08/02 11:57:54;;;;;;;3.75;2.17;;;30.00;99.90;;;;;;1872737;77;21148;-90
2023/08/02 12:00:45;;;;;;;3.30;2.00;;;30.10;99.90;;;;;;1895213;75;21056;-91
2023/08/02 12:03:37;;;;;;;2.20;2.00;;;30.20;99.90;;;;;;1917535;75;21063;-91
2023/08/02 12:06:29;;;;;;;3.50;1.82;;;30.20;99.90;;;;;;1895394;75;21180;-91
2023/08/02 12:09:23;;;;;;;2.40;2.15;;;30.30;98.80;;;;;;1886992;76;21055;-91
2023/08/02 12:12:14;;;;;;;2.20;2.00;;;30.40;99.90;;;;;;1884299;76;21208;-92
2023/08/02 12:15:14;;;;;;;2.42;2.17;;;30.40;98.40;;;;;;1872286;77;21062;-91
2023/08/02 12:18:06;;;;;;;4.22;2.37;;;30.60;98.40;;;;;;1897387;75;21587;-92
2023/08/02 12:20:57;;;;;;;5.35;2.60;;;30.60;99.30;;;;;;1904558;74;21669;-91
2023/08/02 12:23:49;;;;;;;3.42;2.60;;;30.80;99.60;;;;;;1872234;77;21111;-90
2023/08/02 12:26:40;;;;;;;3.47;2.30;;;30.90;99.00;;;;;;1916168;75;21317;-92
2023/08/02 12:29:34;;;;;;;3.65;2.58;;;31.00;98.50;;;;;;1878524;75;21649;-93
2023/08/02 12:32:28;;;;;;;6.00;2.30;;;31.10;98.70;;;;;;1872912;75;21181;-93
2023/08/02 12:35:19;;;;;;;3.00;2.30;;;31.10;98.80;;;;;;1904513;75;21169;-92
2023/08/02 12:38:10;;;;;;;2.58;2.12;;;31.20;98.40;;;;;;1883759;75;21103;-91
2023/08/02 12:41:03;;;;;;;4.97;2.37;;;31.20;97.70;;;;;;1904854;75;21117;-91
2023/08/02 12:43:54;;;;;;;2.35;2.15;;;31.20;98.10;;;;;;1889814;75;21114;-92
2023/08/02 12:46:47;;;;;;;3.55;2.08;;;31.30;97.80;;;;;;1872507;77;21870;-90
2023/08/02 12:49:39;;;;;;;2.67;2.12;;;31.40;96.30;;;;;;1872352;77;21103;-91
2023/08/02 12:52:30;;;;;;;2.77;2.20;;;31.50;96.20;;;;;;1871926;77;21129;-91
2023/08/02 12:55:22;;;;;;;3.05;2.10;;;31.80;94.80;;;;;;1873161;77;21182;-90
2023/08/02 12:58:13;;;;;;;2.72;2.02;;;31.90;93.80;;;;;;1872031;77;21114;-92
2023/08/02 13:01:05;;;;;;;3.92;2.10;;;32.10;91.80;;;;;;1887685;75;21095;-91
2023/08/02 13:03:56;;;;;;;2.60;1.80;;;32.20;91.30;;;;;;1872451;77;21103;-92
2023/08/02 13:06:48;;;;;;;2.40;2.10;;;32.30;90.70;;;;;;1872154;77;21103;-92
2023/08/02 13:09:41;;;;;;;2.30;2.10;;;32.40;90.40;;;;;;1894969;75;21096;-90
2023/08/02 13:12:35;;;;;;;2.05;1.85;;;32.50;89.80;;;;;;1886717;75;21219;-91
2023/08/02 13:15:26;;;;;;;3.77;2.30;;;32.70;88.80;;;;;;1896941;75;21133;-91
2023/08/02 13:18:17;;;;;;;2.80;1.92;;;32.70;87.50;;;;;;1909050;75;21187;-91
2023/08/02 13:21:09;;;;;;;5.15;2.00;;;32.70;84.20;;;;;;1906960;75;21098;-93
2023/08/02 13:24:00;;;;;;;2.40;1.80;;;32.90;85.80;;;;;;1903466;75;21149;-91
2023/08/02 13:26:51;;;;;;;2.37;1.90;;;33.00;83.90;;;;;;1883966;76;21166;-91
2023/08/02 13:29:42;;;;;;;3.55;2.00;;;33.10;84.10;;;;;;1893060;75;21168;-92
2023/08/02 13:32:34;;;;;;;3.12;2.10;;;33.20;84.20;;;;;;1891265;75;21103;-92
2023/08/02 13:35:25;;;;;;;2.45;1.95;;;33.30;82.00;;;;;;1884273;76;21051;-90
2023/08/02 13:38:17;;;;;;;3.25;2.12;;;33.20;80.90;;;;;;1884102;75;21115;-93
2023/08/02 13:41:08;;;;;;;2.02;1.92;;;33.40;80.40;;;;;;1872186;77;21080;-92
2023/08/02 13:44:00;;;;;;;2.22;1.90;;;33.60;77.90;;;;;;1872257;77;21110;-92
2023/08/02 13:46:51;;;;;;;2.35;2.15;;;33.70;76.30;;;;;;1885324;76;21096;-91
2023/08/02 13:49:44;;;;;;;2.08;1.87;;;33.70;72.80;;;;;;1884302;76;21129;-92
2023/08/02 13:52:36;;;;;;;2.30;2.10;;;33.80;71.40;;;;;;1915120;75;21055;-93
2023/08/02 13:55:27;;;;;;;3.35;2.20;;;34.00;71.30;;;;;;1891610;75;21166;-91
2023/08/02 13:58:18;;;;;;;3.00;2.15;;;34.00;70.10;;;;;;1885278;76;21114;-91
2023/08/02 14:01:10;;;;;;;2.02;1.82;;;34.30;70.80;;;;;;1886489;76;21204;-92
2023/08/02 14:04:01;;;;;;;1.98;1.87;;;34.90;69.30;;;;;;1884137;75;21059;-93
2023/08/02 14:06:52;;;;;;;2.40;2.20;;;35.40;67.90;;;;;;1893675;75;21135;-92
2023/08/02 14:09:44;;;;;;;2.10;1.90;;;35.40;66.30;;;;;;1884235;76;21176;-92
2023/08/02 14:12:36;;;;;;;2.92;2.20;;;35.80;65.80;;;;;;1888813;75;21142;-92
2023/08/02 14:15:28;;;;;;;3.17;2.00;;;36.40;63.80;;;;;;1904772;75;21091;-94
2023/08/02 14:18:18;;;;;;;2.27;2.08;;;37.20;64.30;;;;;;1904959;75;21140;-92
2023/08/02 14:21:10;;;;;;;3.80;2.05;;;37.70;62.30;;;;;;1881962;75;21570;-93
2023/08/02 14:24:01;;;;;;;3.12;2.00;;;37.80;59.70;;;;;;1885028;76;21193;-92
2023/08/02 14:26:56;;;;;;;1.90;1.80;;;37.70;57.20;;;;;;1884381;76;21180;-92
2023/08/02 14:29:49;;;;;;;2.10;1.90;;;38.00;59.10;;;;;;1884059;76;21150;-92
2023/08/02 14:32:41;;;;;;;1.87;1.77;;;38.40;56.80;;;;;;1884227;76;21075;-92
2023/08/02 14:35:33;;;;;;;2.08;1.90;;;38.50;56.40;;;;;;1884032;76;21205;-92
2023/08/02 14:38:24;;;;;;;1.80;1.70;;;38.90;54.90;;;;;;1899413;75;21103;-91
2023/08/02 14:41:15;;;;;;;2.67;1.70;;;38.50;55.10;;;;;;1906589;75;21114;-92
2023/08/02 14:44:07;;;;;;;5.53;2.10;;;38.60;53.60;;;;;;1895681;75;21528;-94
2023/08/02 14:46:58;;;;;;;3.02;2.05;;;38.70;53.80;;;;;;1883956;75;21631;-93
2023/08/02 14:49:50;;;;;;;4.33;1.90;;;39.00;53.70;;;;;;1899667;75;21106;-94
2023/08/02 14:52:41;;;;;;;2.98;2.20;;;39.00;52.00;;;;;;1895935;75;21059;-93
2023/08/02 14:55:33;;;;;;;2.22;2.02;;;39.10;51.50;;;;;;1894968;75;21090;-93
2023/08/02 14:58:24;;;;;;;3.65;2.20;;;39.10;49.80;;;;;;1893565;75;21105;-92
2023/08/02 15:01:16;;;;;;;3.55;2.30;;;39.30;50.10;;;;;;1884903;76;21131;-94
2023/08/02 15:04:07;;;;;;;3.08;2.30;;;39.60;49.40;;;;;;1884248;76;21525;-93
2023/08/02 15:06:59;;;;;;;2.30;2.10;;;40.00;49.00;;;;;;1884219;76;21106;-93
2023/08/02 15:09:50;;;;;;;2.20;2.00;;;40.60;49.30;;;;;;1884569;76;21102;-94
2023/08/02 15:12:43;;;;;;;2.50;2.12;;;40.60;47.30;;;;;;1884463;76;21116;-93
2023/08/02 15:15:35;;;;;;;2.67;2.08;;;39.80;46.90;;;;;;1884514;76;21098;-93
2023/08/02 15:18:26;;;;;;;3.15;2.37;;;39.60;46.80;;;;;;1884475;76;21161;-93
2023/08/02 15:21:17;;;;;;;2.80;2.00;;;40.30;46.10;;;;;;1883926;76;21085;-92
2023/08/02 15:24:11;;;;;;;2.58;2.30;;;39.80;46.10;;;;;;1900106;75;21136;-92
2023/08/02 15:27:02;;;;;;;4.35;1.95;;;38.80;46.80;;;;;;1873075;77;21142;-92
2023/08/02 15:29:53;;;;;;;3.17;1.92;;;39.00;47.10;;;;;;1904696;75;21185;-92
2023/08/02 15:32:44;;;;;;;3.83;2.20;;;39.00;47.00;;;;;;1904958;75;21118;-91
2023/08/02 15:35:35;;;;;;;2.12;1.92;;;38.80;46.90;;;;;;1882977;75;21095;-92
2023/08/02 15:38:27;;;;;;;2.33;2.12;;;39.40;47.00;;;;;;1872079;77;21126;-92
2023/08/02 15:41:18;;;;;;;3.65;2.10;;;38.90;46.90;;;;;;1872633;77;21102;-92
2023/08/02 15:44:09;;;;;;;2.85;1.92;;;39.60;46.50;;;;;;1910987;75;21091;-90
2023/08/02 15:47:01;;;;;;;2.90;2.33;;;39.80;45.30;;;;;;1896803;75;21090;-92
2023/08/02 15:52:52;;;;;;;2.20;1.77;;;39.20;45.80;;;;;;1874002;77;21047;-89
2023/08/02 15:55:43;;;;;;;3.08;2.27;;;39.90;45.30;;;;;;1872146;77;21096;-91
2023/08/02 15:58:34;;;;;;;2.22;2.02;;;39.60;45.40;;;;;;1872191;77;21131;-91
2023/08/02 16:01:27;;;;;;;2.25;2.02;;;40.10;45.10;;;;;;1891676;75;21082;-91
2023/08/02 16:04:19;;;;;;;2.20;2.00;;;40.70;44.00;;;;;;1872177;77;21099;-91
2023/08/02 16:07:10;;;;;;;2.90;1.98;;;39.90;44.50;;;;;;1881380;75;21107;-90
2023/08/02 16:10:07;;;;;;;2.30;2.10;;;39.20;44.90;;;;;;1901070;75;21302;-90
2023/08/02 16:13:00;;;;;;;3.75;2.30;;;39.90;44.80;;;;;;1884019;76;21095;-92
2023/08/02 16:15:51;;;;;;;3.15;2.12;;;40.40;43.80;;;;;;1900319;75;21051;-91
2023/08/02 16:18:42;;;;;;;2.33;2.12;;;40.60;43.30;;;;;;1885076;75;21163;-91
2023/08/02 16:21:33;;;;;;;2.08;1.87;;;40.20;43.60;;;;;;1872020;77;21163;-90
2023/08/02 16:59:23;;;;;;;2.62;2.40;;;38.00;46.40;;;;;;1998857;71;22154;-91
2023/08/02 17:02:14;;;;;;;3.00;2.60;;;34.70;53.40;;;;;;1953219;73;21155;-89
2023/08/02 17:05:08;;;;;;;2.60;2.40;;;34.20;55.00;;;;;;1987105;72;21510;-91
2023/08/02 17:07:59;;;;;;;3.10;2.75;;;33.60;54.60;;;;;;2032246;70;21105;-91
2023/08/02 17:10:50;;;;;;;2.55;2.35;;;33.60;55.40;;;;;;2032776;70;21224;-90
2023/08/02 17:13:41;;;;;;;2.67;2.47;;;33.50;55.10;;;;;;2032635;70;21097;-90
2023/08/02 17:16:34;;;;;;;2.90;2.60;;;33.30;56.20;;;;;;2032583;70;21107;-93